sensor_id;sensor_type;location;lat;lon;timestamp;pressure;altitude;pressure_sealevel;temperature;humidity
78773;BME280;68111;44.728;11.290;2023-12-29T00:01:33;102379.88;;;16.27;46.10
78773;BME280;68111;44.728;11.290;2023-12-29T00:04:00;102374.53;;;16.27;46.12
78773;BME280;68111;44.728;11.290;2023-12-29T00:06:27;102372.75;;;16.27;46.00
78773;BME280;68111;44.728;11.290;2023-12-29T00:08:54;102383.44;;;16.29;46.00
78773;BME280;68111;44.728;11.290;2023-12-29T00:11:21;102383.44;;;16.29;46.09
78773;BME280;68111;44.728;11.290;2023-12-29T00:13:47;102376.31;;;16.28;46.06
78773;BME280;68111;44.728;11.290;2023-12-29T00:16:15;102361.19;;;16.27;45.98
78773;BME280;68111;44.728;11.290;2023-12-29T00:18:42;102358.50;;;16.27;45.91
78773;BME280;68111;44.728;11.290;2023-12-29T00:21:10;102359.41;;;16.26;45.93
78773;BME280;68111;44.728;11.290;2023-12-29T00:23:37;102353.16;;;16.25;45.81
78773;BME280;68111;44.728;11.290;2023-12-29T00:26:04;102359.41;;;16.26;45.98
78773;BME280;68111;44.728;11.290;2023-12-29T00:28:31;102348.72;;;16.26;45.81
78773;BME280;68111;44.728;11.290;2023-12-29T00:30:58;102358.50;;;16.27;46.04
78773;BME280;68111;44.728;11.290;2023-12-29T00:33:29;102354.06;;;16.27;45.76
78773;BME280;68111;44.728;11.290;2023-12-29T00:35:58;102348.75;;;16.29;45.61
78773;BME280;68111;44.728;11.290;2023-12-29T00:38:26;102348.75;;;16.29;45.60
78773;BME280;68111;44.728;11.290;2023-12-29T00:40:54;102354.06;;;16.29;45.59
78773;BME280;68111;44.728;11.290;2023-12-29T00:43:21;102356.75;;;16.27;45.63
78773;BME280;68111;44.728;11.290;2023-12-29T00:45:49;102344.28;;;16.25;45.52
78773;BME280;68111;44.728;11.290;2023-12-29T00:48:16;102344.28;;;16.25;45.42
78773;BME280;68111;44.728;11.290;2023-12-29T00:50:43;102339.81;;;16.24;45.26
78773;BME280;68111;44.728;11.290;2023-12-29T00:53:10;102340.72;;;16.23;45.45
78773;BME280;68111;44.728;11.290;2023-12-29T00:55:37;102336.25;;;16.22;45.44
78773;BME280;68111;44.728;11.290;2023-12-29T00:58:04;102334.47;;;16.21;45.39
78773;BME280;68111;44.728;11.290;2023-12-29T01:00:31;102339.81;;;16.21;45.27
78773;BME280;68111;44.728;11.290;2023-12-29T01:02:58;102336.25;;;16.19;45.29
78773;BME280;68111;44.728;11.290;2023-12-29T01:05:25;102343.38;;;16.20;45.78
78773;BME280;68111;44.728;11.290;2023-12-29T01:07:51;102333.56;;;16.19;45.22
78773;BME280;68111;44.728;11.290;2023-12-29T01:10:18;102341.56;;;16.17;45.30
78773;BME280;68111;44.728;11.290;2023-12-29T01:12:45;102341.56;;;16.17;45.28
78773;BME280;68111;44.728;11.290;2023-12-29T01:15:12;102343.34;;;16.17;45.20
78773;BME280;68111;44.728;11.290;2023-12-29T01:17:39;102357.59;;;16.17;45.17
78773;BME280;68111;44.728;11.290;2023-12-29T01:20:06;102363.81;;;16.18;45.33
78773;BME280;68111;44.728;11.290;2023-12-29T01:22:33;102370.94;;;16.19;45.22
78773;BME280;68111;44.728;11.290;2023-12-29T01:25:00;102379.81;;;16.19;45.35
78773;BME280;68111;44.728;11.290;2023-12-29T01:27:28;102367.38;;;16.20;45.13
78773;BME280;68111;44.728;11.290;2023-12-29T01:29:56;102365.59;;;16.17;45.22
78773;BME280;68111;44.728;11.290;2023-12-29T01:32:22;102362.03;;;16.18;45.15
78773;BME280;68111;44.728;11.290;2023-12-29T01:34:49;102359.34;;;16.17;45.13
78773;BME280;68111;44.728;11.290;2023-12-29T01:37:17;102361.16;;;16.18;45.06
78773;BME280;68111;44.728;11.290;2023-12-29T01:39:44;102346.00;;;16.15;45.04
78773;BME280;68111;44.728;11.290;2023-12-29T01:42:11;102352.22;;;16.13;45.25
78773;BME280;68111;44.728;11.290;2023-12-29T01:44:38;102354.00;;;16.11;45.12
78773;BME280;68111;44.728;11.290;2023-12-29T01:47:11;102348.66;;;16.08;45.13
78773;BME280;68111;44.728;11.290;2023-12-29T01:49:41;102351.31;;;16.06;45.31
78773;BME280;68111;44.728;11.290;2023-12-29T01:52:09;102348.63;;;16.05;45.40
78773;BME280;68111;44.728;11.290;2023-12-29T01:54:36;102343.28;;;16.05;45.30
78773;BME280;68111;44.728;11.290;2023-12-29T01:57:07;102345.97;;;16.05;45.39
78773;BME280;68111;44.728;11.290;2023-12-29T01:59:36;102329.97;;;16.05;45.34
78773;BME280;68111;44.728;11.290;2023-12-29T02:02:05;102322.84;;;16.05;45.16
78773;BME280;68111;44.728;11.290;2023-12-29T03:13:58;102287.22;;;15.94;45.79
78773;BME280;68111;44.728;11.290;2023-12-29T03:16:27;102269.44;;;15.93;45.64
78773;BME280;68111;44.728;11.290;2023-12-29T03:18:53;102275.66;;;15.93;45.65
78773;BME280;68111;44.728;11.290;2023-12-29T03:21:20;102266.78;;;15.94;45.85
78773;BME280;68111;44.728;11.290;2023-12-29T03:23:47;102260.56;;;15.94;45.85
78773;BME280;68111;44.728;11.290;2023-12-29T03:26:14;102256.13;;;15.94;45.59
78773;BME280;68111;44.728;11.290;2023-12-29T03:28:42;102253.44;;;15.93;45.63
78773;BME280;68111;44.728;11.290;2023-12-29T03:31:09;102249.00;;;15.95;45.49
78773;BME280;68111;44.728;11.290;2023-12-29T03:33:36;102247.22;;;15.95;45.67
78773;BME280;68111;44.728;11.290;2023-12-29T03:36:03;102254.34;;;15.96;45.75
78773;BME280;68111;44.728;11.290;2023-12-29T03:38:30;102243.69;;;15.96;45.60
78773;BME280;68111;44.728;11.290;2023-12-29T03:41:00;102241.91;;;15.95;45.98
78773;BME280;68111;44.728;11.290;2023-12-29T03:43:26;102252.56;;;15.95;45.53
78773;BME280;68111;44.728;11.290;2023-12-29T03:45:53;102247.22;;;15.95;45.94
78773;BME280;68111;44.728;11.290;2023-12-29T03:48:20;102240.13;;;15.94;45.91
78773;BME280;68111;44.728;11.290;2023-12-29T03:50:48;102233.00;;;15.93;45.85
78773;BME280;68111;44.728;11.290;2023-12-29T03:53:14;102239.22;;;15.92;45.58
78773;BME280;68111;44.728;11.290;2023-12-29T03:55:41;102232.09;;;15.91;45.90
78773;BME280;68111;44.728;11.290;2023-12-29T03:58:08;102231.19;;;15.89;45.88
78773;BME280;68111;44.728;11.290;2023-12-29T04:00:36;102226.75;;;15.88;46.18
78773;BME280;68111;44.728;11.290;2023-12-29T04:03:03;102229.41;;;15.88;46.31
78773;BME280;68111;44.728;11.290;2023-12-29T04:05:30;102226.75;;;15.88;46.14
78773;BME280;68111;44.728;11.290;2023-12-29T04:07:58;102217.88;;;15.89;46.26
78773;BME280;68111;44.728;11.290;2023-12-29T04:10:26;102222.31;;;15.90;46.24
78773;BME280;68111;44.728;11.290;2023-12-29T04:12:52;102230.31;;;15.92;46.47
78773;BME280;68111;44.728;11.290;2023-12-29T04:15:19;102222.31;;;15.90;46.25
78773;BME280;68111;44.728;11.290;2023-12-29T04:17:46;102217.88;;;15.92;46.37
78773;BME280;68111;44.728;11.290;2023-12-29T04:20:13;102223.22;;;15.92;46.69
78773;BME280;68111;44.728;11.290;2023-12-29T04:22:40;102231.22;;;15.92;46.56
78773;BME280;68111;44.728;11.290;2023-12-29T04:25:07;102223.22;;;15.91;46.58
78773;BME280;68111;44.728;11.290;2023-12-29T04:27:35;102224.09;;;15.91;46.69
78773;BME280;68111;44.728;11.290;2023-12-29T04:30:02;102232.97;;;15.90;46.62
78773;BME280;68111;44.728;11.290;2023-12-29T04:32:30;102226.75;;;15.90;46.81
78773;BME280;68111;44.728;11.290;2023-12-29T04:34:57;102215.19;;;15.89;46.70
78773;BME280;68111;44.728;11.290;2023-12-29T04:37:24;102219.66;;;15.90;46.62
78773;BME280;68111;44.728;11.290;2023-12-29T04:39:50;102212.53;;;15.88;46.71
78773;BME280;68111;44.728;11.290;2023-12-29T04:42:17;102216.09;;;15.87;46.80
78773;BME280;68111;44.728;11.290;2023-12-29T04:44:44;102208.97;;;15.84;46.75
78773;BME280;68111;44.728;11.290;2023-12-29T04:47:11;102222.28;;;15.83;46.78
78773;BME280;68111;44.728;11.290;2023-12-29T04:49:38;102212.50;;;15.82;46.70
78773;BME280;68111;44.728;11.290;2023-12-29T04:52:05;102208.06;;;15.79;46.81
78773;BME280;68111;44.728;11.290;2023-12-29T04:54:32;102200.94;;;15.77;47.02
78773;BME280;68111;44.728;11.290;2023-12-29T04:56:59;102205.38;;;15.76;46.89
78773;BME280;68111;44.728;11.290;2023-12-29T04:59:25;102204.50;;;15.79;47.03
78773;BME280;68111;44.728;11.290;2023-12-29T05:01:52;102198.28;;;15.78;46.83
78773;BME280;68111;44.728;11.290;2023-12-29T05:04:19;102205.38;;;15.79;46.99
78773;BME280;68111;44.728;11.290;2023-12-29T05:06:46;102197.38;;;15.79;46.90
78773;BME280;68111;44.728;11.290;2023-12-29T05:09:13;102199.16;;;15.80;46.85
78773;BME280;68111;44.728;11.290;2023-12-29T05:11:39;102206.28;;;15.81;46.86
78773;BME280;68111;44.728;11.290;2023-12-29T05:14:06;102198.28;;;15.81;46.95
78773;BME280;68111;44.728;11.290;2023-12-29T05:16:33;102198.28;;;15.81;47.01
78773;BME280;68111;44.728;11.290;2023-12-29T05:19:00;102198.28;;;15.83;47.07
78773;BME280;68111;44.728;11.290;2023-12-29T05:21:27;102202.72;;;15.84;46.85
78773;BME280;68111;44.728;11.290;2023-12-29T05:23:53;102194.75;;;15.85;47.32
78773;BME280;68111;44.728;11.290;2023-12-29T05:26:20;102190.28;;;15.84;47.12
78773;BME280;68111;44.728;11.290;2023-12-29T05:28:47;102191.19;;;15.83;47.00
78773;BME280;68111;44.728;11.290;2023-12-29T05:31:14;102197.41;;;15.84;47.07
78773;BME280;68111;44.728;11.290;2023-12-29T05:33:42;102189.41;;;15.84;47.12
78773;BME280;68111;44.728;11.290;2023-12-29T05:36:09;102192.97;;;15.84;47.02
78773;BME280;68111;44.728;11.290;2023-12-29T05:38:37;102191.19;;;15.83;46.94
78773;BME280;68111;44.728;11.290;2023-12-29T05:41:04;102197.41;;;15.82;46.92
78773;BME280;68111;44.728;11.290;2023-12-29T05:43:32;102205.38;;;15.81;47.09
78773;BME280;68111;44.728;11.290;2023-12-29T05:46:00;102208.06;;;15.79;47.18
78773;BME280;68111;44.728;11.290;2023-12-29T05:48:27;102212.50;;;15.79;47.17
78773;BME280;68111;44.728;11.290;2023-12-29T05:50:54;102215.16;;;15.76;46.91
78773;BME280;68111;44.728;11.290;2023-12-29T05:53:21;102224.00;;;15.70;47.25
78773;BME280;68111;44.728;11.290;2023-12-29T05:55:48;102214.22;;;15.67;47.20
78773;BME280;68111;44.728;11.290;2023-12-29T05:58:14;102209.75;;;15.63;47.18
78773;BME280;68111;44.728;11.290;2023-12-29T06:00:42;102214.16;;;15.60;47.51
78773;BME280;68111;44.728;11.290;2023-12-29T06:03:08;102213.25;;;15.58;47.42
78773;BME280;68111;44.728;11.290;2023-12-29T06:05:35;102209.69;;;15.57;47.62
78773;BME280;68111;44.728;11.290;2023-12-29T06:08:02;102215.03;;;15.59;47.36
78773;BME280;68111;44.728;11.290;2023-12-29T06:10:29;102223.97;;;15.61;47.33
78773;BME280;68111;44.728;11.290;2023-12-29T06:12:56;102216.88;;;15.63;47.35
78773;BME280;68111;44.728;11.290;2023-12-29T06:15:23;102215.97;;;15.62;47.47
78773;BME280;68111;44.728;11.290;2023-12-29T06:17:49;102207.97;;;15.61;47.51
78773;BME280;68111;44.728;11.290;2023-12-29T06:20:16;102217.75;;;15.62;47.40
78773;BME280;68111;44.728;11.290;2023-12-29T06:22:43;102222.19;;;15.63;47.40
78773;BME280;68111;44.728;11.290;2023-12-29T06:25:11;102222.19;;;15.63;47.41
78773;BME280;68111;44.728;11.290;2023-12-29T06:27:39;102223.97;;;15.64;47.41
78773;BME280;68111;44.728;11.290;2023-12-29T06:30:08;102220.44;;;15.63;47.53
78773;BME280;68111;44.728;11.290;2023-12-29T06:32:36;102221.31;;;15.62;47.40
78773;BME280;68111;44.728;11.290;2023-12-29T06:35:04;102225.75;;;15.62;47.53
78773;BME280;68111;44.728;11.290;2023-12-29T06:37:31;102231.09;;;15.62;47.44
78773;BME280;68111;44.728;11.290;2023-12-29T06:39:58;102221.31;;;15.61;47.57
78773;BME280;68111;44.728;11.290;2023-12-29T06:42:25;102221.31;;;15.61;47.52
78773;BME280;68111;44.728;11.290;2023-12-29T06:44:53;102213.31;;;15.61;47.45
78773;BME280;68111;44.728;11.290;2023-12-29T06:47:20;102221.31;;;15.61;47.52
78773;BME280;68111;44.728;11.290;2023-12-29T06:49:47;102225.75;;;15.62;47.41
78773;BME280;68111;44.728;11.290;2023-12-29T06:52:14;102224.84;;;15.61;47.49
78773;BME280;68111;44.728;11.290;2023-12-29T06:54:41;102222.19;;;15.61;47.32
78773;BME280;68111;44.728;11.290;2023-12-29T06:57:08;102220.41;;;15.62;47.51
78773;BME280;68111;44.728;11.290;2023-12-29T06:59:35;102223.97;;;15.62;47.31
78773;BME280;68111;44.728;11.290;2023-12-29T07:02:02;102215.09;;;15.62;47.30
78773;BME280;68111;44.728;11.290;2023-12-29T07:04:29;102223.09;;;15.63;47.18
78773;BME280;68111;44.728;11.290;2023-12-29T07:06:56;102229.31;;;15.64;47.06
78773;BME280;68111;44.728;11.290;2023-12-29T07:09:23;102240.84;;;15.61;47.37
78773;BME280;68111;44.728;11.290;2023-12-29T07:11:50;102236.28;;;15.50;47.06
78773;BME280;68111;44.728;11.290;2023-12-29T07:14:17;102236.19;;;15.34;47.37
78773;BME280;68111;44.728;11.290;2023-12-29T07:16:44;102237.84;;;15.17;47.42
78773;BME280;68111;44.728;11.290;2023-12-29T07:19:10;102242.19;;;15.01;47.58
78773;BME280;68111;44.728;11.290;2023-12-29T07:21:38;102238.50;;;14.87;47.98
78773;BME280;68111;44.728;11.290;2023-12-29T07:24:05;102241.97;;;14.76;48.12
78773;BME280;68111;44.728;11.290;2023-12-29T07:26:33;102242.78;;;14.67;48.38
78773;BME280;68111;44.728;11.290;2023-12-29T07:29:03;102247.16;;;14.60;48.43
78773;BME280;68111;44.728;11.290;2023-12-29T07:31:30;102254.22;;;14.57;48.52
78773;BME280;68111;44.728;11.290;2023-12-29T07:33:56;102244.44;;;14.54;48.49
78773;BME280;68111;44.728;11.290;2023-12-29T07:36:23;102248.84;;;14.51;48.73
78773;BME280;68111;44.728;11.290;2023-12-29T07:38:50;102249.66;;;14.45;48.73
78773;BME280;68111;44.728;11.290;2023-12-29T07:41:17;102253.13;;;14.41;48.60
78773;BME280;68111;44.728;11.290;2023-12-29T07:43:45;102259.31;;;14.38;48.55
78773;BME280;68111;44.728;11.290;2023-12-29T07:46:11;102260.13;;;14.33;48.83
78773;BME280;68111;44.728;11.290;2023-12-29T07:48:39;102265.41;;;14.30;48.83
78773;BME280;68111;44.728;11.290;2023-12-29T07:51:06;102268.03;;;14.27;48.96
78773;BME280;68111;44.728;11.290;2023-12-29T07:53:33;102277.75;;;14.25;48.76
78773;BME280;68111;44.728;11.290;2023-12-29T07:56:00;102277.75;;;14.25;48.83
78773;BME280;68111;44.728;11.290;2023-12-29T07:58:27;102273.28;;;14.22;48.79
78773;BME280;68111;44.728;11.290;2023-12-29T08:00:53;102278.59;;;14.21;48.55
78773;BME280;68111;44.728;11.290;2023-12-29T08:03:20;102279.50;;;14.23;48.67
78773;BME280;68111;44.728;11.290;2023-12-29T08:05:47;102284.81;;;14.23;48.52
78773;BME280;68111;44.728;11.290;2023-12-29T08:08:14;102282.19;;;14.24;48.42
78773;BME280;68111;44.728;11.290;2023-12-29T08:10:41;102276.91;;;14.27;48.58
78773;BME280;68111;44.728;11.290;2023-12-29T08:13:08;102284.06;;;14.31;48.24
78773;BME280;68111;44.728;11.290;2023-12-29T08:15:36;102284.97;;;14.33;48.29
78773;BME280;68111;44.728;11.290;2023-12-29T08:18:04;102283.25;;;14.37;48.30
78773;BME280;68111;44.728;11.290;2023-12-29T08:20:31;102281.50;;;14.39;48.25
78773;BME280;68111;44.728;11.290;2023-12-29T08:22:58;102279.81;;;14.44;48.22
78773;BME280;68111;44.728;11.290;2023-12-29T08:25:25;102278.09;;;14.49;47.84
78773;BME280;68111;44.728;11.290;2023-12-29T08:27:52;102289.66;;;14.54;48.10
78773;BME280;68111;44.728;11.290;2023-12-29T08:30:18;102285.28;;;14.59;47.88
78773;BME280;68111;44.728;11.290;2023-12-29T08:32:45;102280.91;;;14.64;47.82
78773;BME280;68111;44.728;11.290;2023-12-29T08:35:12;102284.50;;;14.71;47.81
78773;BME280;68111;44.728;11.290;2023-12-29T08:37:39;102281.94;;;14.82;47.67
78773;BME280;68111;44.728;11.290;2023-12-29T08:40:06;102279.41;;;14.97;47.63
78773;BME280;68111;44.728;11.290;2023-12-29T08:42:34;102275.09;;;15.11;47.66
78773;BME280;68111;44.728;11.290;2023-12-29T08:45:02;102289.41;;;15.25;47.33
78773;BME280;68111;44.728;11.290;2023-12-29T08:47:32;102282.38;;;15.36;47.21
78773;BME280;68111;44.728;11.290;2023-12-29T08:49:59;102287.75;;;15.40;46.97
78773;BME280;68111;44.728;11.290;2023-12-29T08:52:28;102292.16;;;15.36;46.90
78773;BME280;68111;44.728;11.290;2023-12-29T08:54:55;102294.75;;;15.28;47.39
78773;BME280;68111;44.728;11.290;2023-12-29T08:57:22;102301.81;;;15.20;47.45
78773;BME280;68111;44.728;11.290;2023-12-29T08:59:49;102308.84;;;15.12;47.49
78773;BME280;68111;44.728;11.290;2023-12-29T09:02:16;102315.00;;;15.05;47.81
78773;BME280;68111;44.728;11.290;2023-12-29T09:04:43;102322.94;;;15.00;48.01
78773;BME280;68111;44.728;11.290;2023-12-29T09:07:10;102320.25;;;14.97;48.04
78773;BME280;68111;44.728;11.290;2023-12-29T09:09:37;102324.66;;;14.94;48.09
78773;BME280;68111;44.728;11.290;2023-12-29T09:12:04;102314.00;;;14.91;48.26
78773;BME280;68111;44.728;11.290;2023-12-29T09:14:31;102321.13;;;14.95;48.49
78773;BME280;68111;44.728;11.290;2023-12-29T09:16:59;102322.94;;;14.99;48.26
78773;BME280;68111;44.728;11.290;2023-12-29T09:19:26;102315.88;;;15.04;48.59
78773;BME280;68111;44.728;11.290;2023-12-29T09:22:05;102319.44;;;15.06;48.63
78773;BME280;68111;44.728;11.290;2023-12-29T09:24:32;102315.91;;;15.07;48.67
78773;BME280;68111;44.728;11.290;2023-12-29T09:26:59;102320.34;;;15.08;48.72
78773;BME280;68111;44.728;11.290;2023-12-29T09:29:26;102323.00;;;15.05;48.96
78773;BME280;68111;44.728;11.290;2023-12-29T09:31:53;102318.50;;;15.01;48.90
78773;BME280;68111;44.728;11.290;2023-12-29T09:34:19;102323.81;;;14.99;49.19
78773;BME280;68111;44.728;11.290;2023-12-29T09:36:47;102326.47;;;14.98;49.11
78773;BME280;68111;44.728;11.290;2023-12-29T09:39:13;102333.59;;;14.99;49.19
78773;BME280;68111;44.728;11.290;2023-12-29T09:41:48;102330.94;;;15.00;49.48
78773;BME280;68111;44.728;11.290;2023-12-29T09:44:20;102323.00;;;15.05;49.33
78773;BME280;68111;44.728;11.290;2023-12-29T09:46:54;102319.44;;;15.06;49.43
78773;BME280;68111;44.728;11.290;2023-12-29T09:49:22;102323.91;;;15.09;49.62
78773;BME280;68111;44.728;11.290;2023-12-29T09:51:50;102318.59;;;15.09;49.66
78773;BME280;68111;44.728;11.290;2023-12-29T09:54:17;102321.25;;;15.10;49.55
78773;BME280;68111;44.728;11.290;2023-12-29T09:56:44;102316.84;;;15.12;49.75
78773;BME280;68111;44.728;11.290;2023-12-29T09:59:12;102308.88;;;15.15;49.82
78773;BME280;68111;44.728;11.290;2023-12-29T10:01:41;102311.56;;;15.18;49.84
78773;BME280;68111;44.728;11.290;2023-12-29T10:04:08;102308.03;;;15.22;49.69
78773;BME280;68111;44.728;11.290;2023-12-29T10:06:38;102302.75;;;15.27;49.61
78773;BME280;68111;44.728;11.290;2023-12-29T10:09:10;102306.34;;;15.32;49.70
78773;BME280;68111;44.728;11.290;2023-12-29T10:11:40;102303.75;;;15.43;49.57
78773;BME280;68111;44.728;11.290;2023-12-29T10:14:30;102304.69;;;15.51;49.42
78773;BME280;68111;44.728;11.290;2023-12-29T10:17:40;102305.72;;;15.62;49.14
78773;BME280;68111;44.728;11.290;2023-12-29T10:20:18;102292.44;;;15.70;48.83
78773;BME280;68111;44.728;11.290;2023-12-29T10:23:10;102291.59;;;15.78;48.82
78773;BME280;68111;44.728;11.290;2023-12-29T10:25:40;102289.84;;;15.86;48.56
78773;BME280;68111;44.728;11.290;2023-12-29T10:28:09;102285.47;;;15.97;48.58
78773;BME280;68111;44.728;11.290;2023-12-29T10:30:36;102279.31;;;16.14;48.02
78773;BME280;68111;44.728;11.290;2023-12-29T10:33:04;102276.69;;;16.29;47.85
78773;BME280;68111;44.728;11.290;2023-12-29T10:35:34;102271.38;;;16.43;47.81
78773;BME280;68111;44.728;11.290;2023-12-29T10:38:11;102266.97;;;16.58;47.23
78773;BME280;68111;44.728;11.290;2023-12-29T10:40:42;102259.91;;;16.74;47.09
78773;BME280;68111;44.728;11.290;2023-12-29T10:43:11;102262.56;;;16.86;46.96
78773;BME280;68111;44.728;11.290;2023-12-29T10:45:38;102258.16;;;16.99;46.39
78773;BME280;68111;44.728;11.290;2023-12-29T10:48:06;102240.31;;;17.13;46.20
78773;BME280;68111;44.728;11.290;2023-12-29T10:50:45;102242.97;;;17.32;45.85
78773;BME280;68111;44.728;11.290;2023-12-29T10:53:13;102240.25;;;17.53;45.23
78773;BME280;68111;44.728;11.290;2023-12-29T10:55:41;102233.09;;;17.73;45.11
78773;BME280;68111;44.728;11.290;2023-12-29T10:58:08;102229.44;;;17.92;44.59
78773;BME280;68111;44.728;11.290;2023-12-29T11:00:35;102232.94;;;18.08;44.37
78773;BME280;68111;44.728;11.290;2023-12-29T11:03:03;102223.94;;;18.28;44.22
78773;BME280;68111;44.728;11.290;2023-12-29T11:05:30;102232.78;;;18.39;43.67
78773;BME280;68111;44.728;11.290;2023-12-29T11:07:58;102234.56;;;18.38;43.41
78773;BME280;68111;44.728;11.290;2023-12-29T11:10:25;102229.19;;;18.43;43.77
78773;BME280;68111;44.728;11.290;2023-12-29T11:12:53;102223.69;;;18.64;43.23
78773;BME280;68111;44.728;11.290;2023-12-29T11:15:21;102220.81;;;18.89;42.98
78773;BME280;68111;44.728;11.290;2023-12-29T11:17:51;102216.16;;;19.10;42.54
78773;BME280;68111;44.728;11.290;2023-12-29T11:20:19;102223.13;;;19.27;42.10
78773;BME280;68111;44.728;11.290;2023-12-29T11:22:46;102210.47;;;19.41;41.77
78773;BME280;68111;44.728;11.290;2023-12-29T11:25:14;102209.47;;;19.51;41.82
78773;BME280;68111;44.728;11.290;2023-12-29T11:27:42;102205.91;;;19.55;41.41
78773;BME280;68111;44.728;11.290;2023-12-29T11:30:11;102202.34;;;19.53;41.26
78773;BME280;68111;44.728;11.290;2023-12-29T11:35:34;102182.00;;;19.28;41.63
78773;BME280;68111;44.728;11.290;2023-12-29T11:38:26;102192.88;;;19.15;41.91
78773;BME280;68111;44.728;11.290;2023-12-29T11:43:29;102173.16;;;19.19;41.63
78773;BME280;68111;44.728;11.290;2023-12-29T11:45:56;102180.25;;;19.24;41.56
78773;BME280;68111;44.728;11.290;2023-12-29T11:48:57;102168.53;;;19.32;41.55
78773;BME280;68111;44.728;11.290;2023-12-29T11:51:30;102171.09;;;19.43;41.54
78773;BME280;68111;44.728;11.290;2023-12-29T11:53:57;102161.22;;;19.53;41.38
78773;BME280;68111;44.728;11.290;2023-12-29T11:56:30;102160.22;;;19.61;41.20
78773;BME280;68111;44.728;11.290;2023-12-29T12:01:42;102152.53;;;19.26;41.16
78773;BME280;68111;44.728;11.290;2023-12-29T12:04:37;102160.66;;;19.18;41.59
78773;BME280;68111;44.728;11.290;2023-12-29T12:07:16;102154.34;;;19.24;41.50
78773;BME280;68111;44.728;11.290;2023-12-29T12:09:44;102155.13;;;19.32;41.11
78773;BME280;68111;44.728;11.290;2023-12-29T12:12:11;102147.88;;;19.42;41.04
78773;BME280;68111;44.728;11.290;2023-12-29T12:14:46;102132.56;;;19.50;40.94
78773;BME280;68111;44.728;11.290;2023-12-29T12:17:34;102131.66;;;19.57;41.01
78773;BME280;68111;44.728;11.290;2023-12-29T12:20:08;102128.88;;;19.63;41.07
78773;BME280;68111;44.728;11.290;2023-12-29T12:22:38;102120.75;;;19.69;40.54
78773;BME280;68111;44.728;11.290;2023-12-29T12:25:06;102122.56;;;19.67;40.59
78773;BME280;68111;44.728;11.290;2023-12-29T12:27:37;102117.22;;;19.66;40.67
78773;BME280;68111;44.728;11.290;2023-12-29T12:30:04;102114.56;;;19.64;40.72
78773;BME280;68111;44.728;11.290;2023-12-29T12:32:32;102111.00;;;19.64;40.43
78773;BME280;68111;44.728;11.290;2023-12-29T12:34:58;102112.91;;;19.49;40.82
78773;BME280;68111;44.728;11.290;2023-12-29T12:37:28;102111.19;;;19.44;41.02
78773;BME280;68111;44.728;11.290;2023-12-29T12:39:55;102103.09;;;19.47;40.67
78773;BME280;68111;44.728;11.290;2023-12-29T12:42:23;102101.31;;;19.52;40.85
78773;BME280;68111;44.728;11.290;2023-12-29T12:45:06;102096.84;;;19.48;40.75
78773;BME280;68111;44.728;11.290;2023-12-29T12:47:43;102094.25;;;19.42;40.82
78773;BME280;68111;44.728;11.290;2023-12-29T12:50:13;102091.59;;;19.39;40.94
78773;BME280;68111;44.728;11.290;2023-12-29T12:52:40;102093.38;;;19.38;40.98
78773;BME280;68111;44.728;11.290;2023-12-29T12:55:07;102089.00;;;19.33;40.93
78773;BME280;68111;44.728;11.290;2023-12-29T12:57:36;102093.53;;;19.26;41.02
78773;BME280;68111;44.728;11.290;2023-12-29T13:00:04;102081.09;;;19.22;40.92
78773;BME280;68111;44.728;11.290;2023-12-29T13:02:33;102077.53;;;19.20;41.09
78773;BME280;68111;44.728;11.290;2023-12-29T13:05:01;102076.69;;;19.16;41.04
78773;BME280;68111;44.728;11.290;2023-12-29T13:07:31;102074.88;;;19.17;41.17
78773;BME280;68111;44.728;11.290;2023-12-29T13:09:59;102074.97;;;19.11;41.25
78773;BME280;68111;44.728;11.290;2023-12-29T13:12:27;102077.81;;;18.97;41.41
78773;BME280;68111;44.728;11.290;2023-12-29T13:15:04;102083.28;;;18.88;41.47
78773;BME280;68111;44.728;11.290;2023-12-29T13:17:31;102079.75;;;18.83;41.53
78773;BME280;68111;44.728;11.290;2023-12-29T13:19:59;102081.59;;;18.76;41.41
78773;BME280;68111;44.728;11.290;2023-12-29T13:22:26;102085.25;;;18.71;41.56
78773;BME280;68111;44.728;11.290;2023-12-29T13:24:55;102082.66;;;18.62;41.79
78773;BME280;68111;44.728;11.290;2023-12-29T13:27:22;102088.94;;;18.56;41.86
78773;BME280;68111;44.728;11.290;2023-12-29T13:29:49;102079.19;;;18.47;41.97
78773;BME280;68111;44.728;11.290;2023-12-29T13:32:22;102085.50;;;18.39;42.02
78773;BME280;68111;44.728;11.290;2023-12-29T13:37:40;102087.44;;;18.20;42.05
78773;BME280;68111;44.728;11.290;2023-12-29T13:40:17;102088.38;;;18.13;42.44
78773;BME280;68111;44.728;11.290;2023-12-29T13:42:50;102085.72;;;18.08;42.51
78773;BME280;68111;44.728;11.290;2023-12-29T13:45:19;102087.53;;;18.05;42.38
78773;BME280;68111;44.728;11.290;2023-12-29T13:47:46;102093.84;;;17.98;42.84
78773;BME280;68111;44.728;11.290;2023-12-29T13:50:14;102078.75;;;17.86;42.83
78773;BME280;68111;44.728;11.290;2023-12-29T13:52:41;102074.38;;;17.77;43.01
78773;BME280;68111;44.728;11.290;2023-12-29T13:55:08;102089.53;;;17.72;42.78
78773;BME280;68111;44.728;11.290;2023-12-29T13:57:35;102082.44;;;17.68;43.04
78773;BME280;68111;44.728;11.290;2023-12-29T14:02:44;102075.28;;;17.66;43.28
78773;BME280;68111;44.728;11.290;2023-12-29T14:05:20;102083.31;;;17.64;43.37
78773;BME280;68111;44.728;11.290;2023-12-29T14:07:56;102094.03;;;17.64;43.14
78773;BME280;68111;44.728;11.290;2023-12-29T14:10:33;102085.09;;;17.64;43.36